createdAt,value
2022-08-05T00:01:01.036Z,8.35
2022-08-05T00:03:46.547Z,6.58
2022-08-05T00:06:35.993Z,7.90
2022-08-05T00:09:23.178Z,9.70
2022-08-05T00:12:13.055Z,9.38
2022-08-05T00:14:59.258Z,8.48
2022-08-05T00:17:48.410Z,8.73
2022-08-05T00:20:36.393Z,9.25
2022-08-05T00:23:44.557Z,7.60
2022-08-05T00:26:14.506Z,8.45
2022-08-05T00:29:03.763Z,7.45
2022-08-05T00:32:10.957Z,7.58
2022-08-05T00:34:56.351Z,7.65
2022-08-05T00:37:35.864Z,10.28
2022-08-05T00:40:26.875Z,10.03
2022-08-05T00:43:09.125Z,11.05
2022-08-05T00:45:58.195Z,9.00
2022-08-05T00:48:51.217Z,8.25
2022-08-05T00:51:50.935Z,7.90
2022-08-05T00:54:28.185Z,8.50
2022-08-05T00:57:15.726Z,6.78
2022-08-05T01:00:07.227Z,7.35
2022-08-05T01:02:56.949Z,6.08
2022-08-05T01:05:44.545Z,6.78
2022-08-05T01:08:43.195Z,7.08
2022-08-05T01:11:33.713Z,7.07
2022-08-05T01:14:28.395Z,7.12
2022-08-05T01:17:27.648Z,6.25
2022-08-05T01:20:34.660Z,7.55
2022-08-05T01:23:53.209Z,8.68
2022-08-05T01:27:17.666Z,8.98
2022-08-05T01:30:02.706Z,8.50
2022-08-05T01:32:53.161Z,8.68
2022-08-05T01:35:51.757Z,8.30
2022-08-05T01:41:20.975Z,9.15
2022-08-05T01:44:09.853Z,9.10
2022-08-05T01:46:57.897Z,7.62
2022-08-05T01:50:02.007Z,8.18
2022-08-05T01:52:38.083Z,9.48
2022-08-05T01:55:26.473Z,10.00
2022-08-05T01:58:15.897Z,9.38
2022-08-05T02:01:04.458Z,6.62
2022-08-05T02:03:53.326Z,5.87
2022-08-05T02:06:41.017Z,6.12
2022-08-05T02:09:30.520Z,6.50
2022-08-05T02:12:25.536Z,5.90
2022-08-05T02:15:24.140Z,5.97
2022-08-05T02:18:30.758Z,6.08
2022-08-05T02:21:15.022Z,7.58
2022-08-05T02:23:57.937Z,6.30
2022-08-05T02:26:55.882Z,7.72
2022-08-05T02:29:58.554Z,5.83
2022-08-05T02:32:34.739Z,8.10
2022-08-05T02:35:28.079Z,7.87
2022-08-05T02:38:19.176Z,7.15
2022-08-05T02:41:06.379Z,7.72
2022-08-05T02:44:02.307Z,6.70
2022-08-05T02:46:58.331Z,6.58
2022-08-05T02:49:40.608Z,6.47
2022-08-05T02:52:30.623Z,6.72
2022-08-05T02:55:17.564Z,6.80
2022-08-05T02:58:10.567Z,8.10
2022-08-05T03:00:57.130Z,7.50
2022-08-05T03:04:03.061Z,7.45
2022-08-05T03:06:55.813Z,8.60
2022-08-05T03:09:36.415Z,8.65
2022-08-05T03:12:31.144Z,7.45
2022-08-05T03:15:18.610Z,7.28
2022-08-05T03:18:06.295Z,7.80
2022-08-05T03:20:55.363Z,7.00
2022-08-05T03:23:44.116Z,7.25
2022-08-05T03:26:33.944Z,6.42
2022-08-05T03:29:21.424Z,7.03
2022-08-05T03:32:10.160Z,7.75
2022-08-05T03:34:58.512Z,7.28
2022-08-05T03:37:46.945Z,8.23
2022-08-05T03:40:35.742Z,7.58
2022-08-05T03:44:10.016Z,6.97
2022-08-05T03:46:15.640Z,7.92
2022-08-05T03:49:04.551Z,7.90
2022-08-05T03:52:50.388Z,7.37
2022-08-05T03:54:56.728Z,6.35
2022-08-05T03:57:43.057Z,7.70
2022-08-05T04:00:32.482Z,6.60
2022-08-05T04:03:28.280Z,9.15
2022-08-05T04:06:10.200Z,8.23
2022-08-05T04:08:58.137Z,7.17
2022-08-05T04:11:50.826Z,7.72
2022-08-05T04:14:35.811Z,7.78
2022-08-05T04:17:23.795Z,7.60
2022-08-05T04:20:20.922Z,7.40
2022-08-05T04:23:12.224Z,6.03
2022-08-05T04:26:00.456Z,6.67
2022-08-05T04:28:51.263Z,7.05
2022-08-05T04:31:38.767Z,7.72
2022-08-05T04:34:33.886Z,7.00
2022-08-05T04:37:15.952Z,7.80
2022-08-05T04:40:04.167Z,7.20
2022-08-05T04:42:52.457Z,7.80
2022-08-05T04:45:48.073Z,6.97
2022-08-05T04:48:29.240Z,7.05
2022-08-05T04:51:17.730Z,7.33
2022-08-05T04:54:05.600Z,6.50
2022-08-05T04:56:57.434Z,6.55
2022-08-05T04:59:42.177Z,6.85
2022-08-05T05:02:41.429Z,6.75
2022-08-05T05:05:28.236Z,6.17
2022-08-05T05:08:14.182Z,6.80
2022-08-05T05:10:59.768Z,6.53
2022-08-05T05:13:47.537Z,6.50
2022-08-05T05:16:36.192Z,6.67
2022-08-05T05:19:27.339Z,6.95
2022-08-05T05:22:23.382Z,7.70
2022-08-05T05:27:53.876Z,7.30
2022-08-05T05:30:42.401Z,7.72
2022-08-05T05:33:29.831Z,6.90
2022-08-05T05:36:18.905Z,6.25
2022-08-05T05:39:09.390Z,5.92
2022-08-05T05:41:56.417Z,6.05
2022-08-05T05:44:45.888Z,5.83
2022-08-05T05:48:07.167Z,5.62
2022-08-05T05:50:22.368Z,5.17
2022-08-05T05:53:21.937Z,4.53
2022-08-05T05:56:03.242Z,4.78
2022-08-05T05:58:50.761Z,4.37
2022-08-05T06:01:41.423Z,4.30
2022-08-05T06:07:17.184Z,3.95
2022-08-05T06:10:10.205Z,4.00
2022-08-05T06:12:56.193Z,4.20
2022-08-05T06:16:29.864Z,4.33
2022-08-05T06:18:36.476Z,4.45
2022-08-05T06:21:23.056Z,4.25
2022-08-05T06:24:12.775Z,4.20
2022-08-05T06:27:01.362Z,4.05
2022-08-05T06:30:04.406Z,4.33
2022-08-05T06:32:38.234Z,4.10
2022-08-05T06:36:07.184Z,3.67
2022-08-05T06:38:16.384Z,4.15
2022-08-05T06:41:03.840Z,4.35
2022-08-05T06:44:00.290Z,4.10
2022-08-05T06:46:40.680Z,4.07
2022-08-05T06:50:01.402Z,4.35
2022-08-05T06:52:36.681Z,3.92
2022-08-05T06:55:08.712Z,4.28
2022-08-05T06:57:58.119Z,4.08
2022-08-05T07:00:45.192Z,4.17
2022-08-05T07:03:34.639Z,4.42
2022-08-05T07:06:23.480Z,4.08
2022-08-05T07:09:11.076Z,3.98
2022-08-05T07:12:00.436Z,4.08
2022-08-05T07:15:05.072Z,3.98
2022-08-05T07:18:02.207Z,3.90
2022-08-05T07:20:44.264Z,4.28
2022-08-05T07:23:32.368Z,4.45
2022-08-05T07:26:22.881Z,4.00
2022-08-05T07:29:09.552Z,3.98
2022-08-05T07:31:57.488Z,4.20
2022-08-05T07:34:45.280Z,3.85
2022-08-05T07:37:37.525Z,3.60
2022-08-05T07:40:32.544Z,3.42
2022-08-05T07:43:20.528Z,3.20
2022-08-05T07:46:03.648Z,3.37
2022-08-05T07:49:03.506Z,3.27
2022-08-05T07:51:53.120Z,2.75
2022-08-05T07:54:30.943Z,2.72
2022-08-05T07:57:42.056Z,3.00
2022-08-05T08:00:11.424Z,3.15
2022-08-05T08:03:15.167Z,3.33
2022-08-05T08:05:49.667Z,2.95
2022-08-05T08:08:36.547Z,2.98
2022-08-05T08:11:27.654Z,3.02
2022-08-05T08:14:19.023Z,3.03
2022-08-05T08:17:03.652Z,3.20
2022-08-05T08:20:22.360Z,3.35
2022-08-05T08:22:40.363Z,3.40
2022-08-05T08:25:59.244Z,3.20
2022-08-05T08:28:36.673Z,3.02
2022-08-05T08:31:08.650Z,3.20
2022-08-05T08:33:56.364Z,3.30
2022-08-05T08:36:52.419Z,3.40
2022-08-05T08:39:37.413Z,3.08
2022-08-05T08:42:34.608Z,2.80
2022-08-05T08:45:18.096Z,2.98
2022-08-05T08:48:07.458Z,3.05
2022-08-05T08:51:23.189Z,3.10
2022-08-05T08:53:45.049Z,2.90
2022-08-05T08:56:34.060Z,2.55
2022-08-05T08:59:21.785Z,2.80
2022-08-05T09:02:10.961Z,2.75
2022-08-05T09:05:16.899Z,2.60
2022-08-05T09:07:57.312Z,2.72
2022-08-05T09:10:37.819Z,2.45
2022-08-05T09:13:31.814Z,2.70
2022-08-05T09:16:16.830Z,2.77
2022-08-05T09:19:06.921Z,2.27
2022-08-05T09:22:23.235Z,2.62
2022-08-05T09:24:45.121Z,2.70
2022-08-05T09:28:03.961Z,2.70
2022-08-05T09:30:27.208Z,2.58
2022-08-05T09:33:15.324Z,2.50
2022-08-05T09:36:11.807Z,3.15
2022-08-05T09:38:59.856Z,2.33
2022-08-05T09:42:03.928Z,2.52
2022-08-05T09:44:56.219Z,2.42
2022-08-05T09:47:56.295Z,2.30
2022-08-05T09:53:53.561Z,2.52
2022-08-05T09:56:33.615Z,2.30
2022-08-05T09:59:24.003Z,2.33
2022-08-05T10:02:12.914Z,2.58
2022-08-05T10:05:07.959Z,2.83
2022-08-05T10:08:35.172Z,2.55
2022-08-05T10:10:54.084Z,2.70
2022-08-05T10:13:47.457Z,2.40
2022-08-05T10:16:34.081Z,3.33
2022-08-05T10:19:23.462Z,2.70
2022-08-05T10:22:15.613Z,3.08
2022-08-05T10:25:02.040Z,3.75
2022-08-05T10:28:13.128Z,3.25
2022-08-05T10:31:20.783Z,2.90
2022-08-05T10:33:35.198Z,3.15
2022-08-05T10:36:23.424Z,3.00
2022-08-05T10:39:25.176Z,2.85
2022-08-05T10:42:13.590Z,2.35
2022-08-05T10:45:01.185Z,2.65
2022-08-05T10:48:29.174Z,2.75
2022-08-05T10:53:58.211Z,3.02
2022-08-05T10:56:52.733Z,2.33
2022-08-05T11:00:02.606Z,2.90
2022-08-05T11:02:38.021Z,3.10
2022-08-05T11:05:18.712Z,2.85
2022-08-05T11:08:36.658Z,2.75
2022-08-05T11:11:18.689Z,2.60
2022-08-05T11:14:06.276Z,3.10
2022-08-05T11:17:58.705Z,3.10
2022-08-05T11:20:44.590Z,2.80
2022-08-05T11:24:03.913Z,2.80
2022-08-05T11:26:49.576Z,3.15
2022-08-05T11:29:42.993Z,3.22
2022-08-05T11:32:31.491Z,3.30
2022-08-05T11:36:08.384Z,3.10
2022-08-05T11:38:51.895Z,3.10
2022-08-05T11:42:01.284Z,2.90
2022-08-05T11:44:53.328Z,3.30
2022-08-05T11:47:49.060Z,3.35
2022-08-05T11:50:14.630Z,3.25
2022-08-05T11:53:06.362Z,3.47
2022-08-05T11:55:59.270Z,3.12
2022-08-05T11:58:52.871Z,3.12
2022-08-05T12:01:36.653Z,2.95
2022-08-05T12:04:27.585Z,3.00
2022-08-05T12:07:18.394Z,2.80
2022-08-05T12:10:11.574Z,3.20
2022-08-05T12:13:01.075Z,3.10
2022-08-05T12:15:50.466Z,3.33
2022-08-05T12:18:39.980Z,3.22
2022-08-05T12:21:33.834Z,3.10
2022-08-05T12:24:24.647Z,3.47
2022-08-05T12:27:21.643Z,3.15
2022-08-05T12:30:05.193Z,2.95
2022-08-05T12:32:54.113Z,3.35
2022-08-05T12:35:43.537Z,3.30
2022-08-05T12:38:32.665Z,2.97
2022-08-05T12:41:21.536Z,3.10
2022-08-05T12:44:14.419Z,3.12
2022-08-05T12:47:01.806Z,2.95
2022-08-05T12:50:03.283Z,3.00
2022-08-05T12:52:42.271Z,3.12
2022-08-05T12:55:32.807Z,2.65
2022-08-05T12:58:50.870Z,2.70
2022-08-05T13:02:03.285Z,2.67
2022-08-05T13:04:07.430Z,3.00
2022-08-05T13:06:57.664Z,2.92
2022-08-05T13:09:56.719Z,3.05
2022-08-05T13:12:57.291Z,2.70
2022-08-05T13:15:41.922Z,2.90
2022-08-05T13:18:23.989Z,3.15
2022-08-05T13:21:11.152Z,2.90
2022-08-05T13:23:59.697Z,2.45
2022-08-05T13:26:50.776Z,2.72
2022-08-05T13:29:38.147Z,2.80
2022-08-05T13:32:33.060Z,2.60
2022-08-05T13:35:22.215Z,2.67
2022-08-05T13:40:54.050Z,2.52
2022-08-05T13:43:45.063Z,2.50
2022-08-05T13:46:50.781Z,2.35
2022-08-05T13:49:20.441Z,1.92
2022-08-05T13:52:20.120Z,2.30
2022-08-05T13:55:09.743Z,2.50
2022-08-05T13:57:57.224Z,2.52
2022-08-05T14:00:44.304Z,2.15
2022-08-05T14:03:33.546Z,1.98
2022-08-05T14:06:26.421Z,2.05
2022-08-05T14:09:09.936Z,2.10
2022-08-05T14:12:04.114Z,1.80
2022-08-05T14:14:48.241Z,2.05
2022-08-05T14:17:37.547Z,1.85
2022-08-05T14:20:27.316Z,1.67
2022-08-05T14:23:18.957Z,1.77
2022-08-05T14:26:04.858Z,1.60
2022-08-05T14:28:52.738Z,1.70
2022-08-05T14:32:02.275Z,1.60
2022-08-05T14:34:29.106Z,2.00
2022-08-05T14:37:18.384Z,1.70
2022-08-05T14:40:06.961Z,1.60
2022-08-05T14:42:54.433Z,1.75
2022-08-05T14:45:43.580Z,1.60
2022-08-05T14:48:33.317Z,1.62
2022-08-05T14:54:27.724Z,1.80
2022-08-05T14:56:58.652Z,1.60
2022-08-05T14:59:46.321Z,1.80
2022-08-05T15:02:35.077Z,1.57
2022-08-05T15:05:29.884Z,1.67
2022-08-05T15:08:17.834Z,1.67
2022-08-05T15:11:01.216Z,1.67
2022-08-05T15:13:50.384Z,1.52
2022-08-05T15:16:38.210Z,1.60
2022-08-05T15:19:27.096Z,1.70
2022-08-05T15:25:13.727Z,1.87
2022-08-05T15:27:54.820Z,1.70
2022-08-05T15:30:41.744Z,1.72
2022-08-05T15:34:04.545Z,1.50
2022-08-05T15:36:24.204Z,1.60
2022-08-05T15:41:02.713Z,1.67
2022-08-05T15:41:59.459Z,1.70
2022-08-05T15:47:35.948Z,2.00
2022-08-05T15:50:25.189Z,2.20
2022-08-05T15:53:12.677Z,1.75
2022-08-05T15:56:02.796Z,1.90
2022-08-05T15:58:50.585Z,1.80
2022-08-05T16:01:39.865Z,2.05
2022-08-05T16:04:27.113Z,1.90
2022-08-05T16:07:15.208Z,1.83
2022-08-05T16:10:02.724Z,2.10
2022-08-05T16:12:50.758Z,2.00
2022-08-05T16:15:40.107Z,1.92
2022-08-05T16:18:29.598Z,1.90
2022-08-05T16:21:16.936Z,1.90
2022-08-05T16:24:04.374Z,2.20
2022-08-05T16:26:58.905Z,2.42
2022-08-05T16:29:50.883Z,2.20
2022-08-05T16:32:35.536Z,2.47
2022-08-05T16:35:28.416Z,2.37
2022-08-05T16:38:23.731Z,2.58
2022-08-05T16:44:54.276Z,2.92
2022-08-05T16:47:48.310Z,3.00
2022-08-05T16:50:29.745Z,3.20
2022-08-05T16:53:22.662Z,3.20
2022-08-05T16:56:08.185Z,4.17
2022-08-05T16:58:57.637Z,4.17
2022-08-05T17:01:53.708Z,3.40
2022-08-05T17:04:34.014Z,3.30
2022-08-05T17:07:38.881Z,3.10
2022-08-05T17:10:11.025Z,3.50
2022-08-05T17:12:58.364Z,3.35
2022-08-05T17:15:48.524Z,3.52
2022-08-05T17:18:35.609Z,3.20
2022-08-05T17:21:24.721Z,3.80
2022-08-05T17:24:28.461Z,3.65
2022-08-05T17:27:01.455Z,3.20
2022-08-05T17:29:59.643Z,3.62
2022-08-05T17:32:38.321Z,3.92
2022-08-05T17:35:32.653Z,3.25
2022-08-05T17:38:17.873Z,3.55
2022-08-05T17:41:05.583Z,3.50
2022-08-05T17:43:54.993Z,3.70
2022-08-05T17:46:42.787Z,3.52
2022-08-05T17:49:59.714Z,3.60
2022-08-05T17:52:19.946Z,3.60
2022-08-05T17:55:11.148Z,3.60
2022-08-05T17:58:00.258Z,3.80
2022-08-05T18:00:50.658Z,3.83
2022-08-05T18:03:56.033Z,3.85
2022-08-05T18:06:29.223Z,4.33
2022-08-05T18:09:16.304Z,4.25
2022-08-05T18:12:03.873Z,4.10
2022-08-05T18:14:51.769Z,4.33
2022-08-05T18:18:00.795Z,4.20
2022-08-05T18:20:29.520Z,5.10
2022-08-05T18:23:17.561Z,4.55
2022-08-05T18:26:05.601Z,5.30
2022-08-05T18:28:53.691Z,6.75
2022-08-05T18:31:43.114Z,12.85
2022-08-05T18:34:40.661Z,10.25
2022-08-05T18:37:34.229Z,8.27
2022-08-05T18:40:34.315Z,8.18
2022-08-05T18:42:59.066Z,9.35
2022-08-05T18:45:47.617Z,9.58
2022-08-05T18:48:41.623Z,11.30
2022-08-05T18:52:06.303Z,7.83
2022-08-05T18:54:32.816Z,9.00
2022-08-05T18:57:25.562Z,13.58
2022-08-05T19:00:19.940Z,13.97
2022-08-05T19:03:03.372Z,14.85
2022-08-05T19:06:13.217Z,14.45
2022-08-05T19:08:39.697Z,10.23
2022-08-05T19:11:37.134Z,8.68
2022-08-05T19:14:53.551Z,9.80
2022-08-05T19:17:07.788Z,11.57
2022-08-05T19:19:56.216Z,23.67
2022-08-05T19:22:46.011Z,31.40
2022-08-05T19:25:43.409Z,28.62
2022-08-05T19:28:24.551Z,27.75
2022-08-05T19:31:18.024Z,24.47
2022-08-05T19:34:07.666Z,21.85
2022-08-05T19:36:57.444Z,18.35
2022-08-05T19:39:51.014Z,16.25
2022-08-05T19:42:36.501Z,14.43
2022-08-05T19:45:25.598Z,12.25
2022-08-05T19:48:14.613Z,11.03
2022-08-05T19:51:05.097Z,10.65
2022-08-05T19:54:03.743Z,10.70
2022-08-05T19:56:44.272Z,10.30
2022-08-05T19:59:54.966Z,10.65
2022-08-05T20:02:26.353Z,9.98
2022-08-05T20:05:16.686Z,11.43
2022-08-05T20:10:53.932Z,14.28
2022-08-05T20:13:58.525Z,15.97
2022-08-05T20:16:31.329Z,13.85
2022-08-05T20:19:21.298Z,12.40
2022-08-05T20:22:13.280Z,17.73
2022-08-05T20:25:00.536Z,16.93
2022-08-05T20:27:48.291Z,18.25
2022-08-05T20:30:37.946Z,17.77
2022-08-05T20:33:25.050Z,16.02
2022-08-05T20:36:14.369Z,11.05
2022-08-05T20:39:03.425Z,10.75
2022-08-05T20:41:51.084Z,10.93
2022-08-05T20:44:39.025Z,11.97
2022-08-05T20:47:32.347Z,11.22
2022-08-05T20:50:17.410Z,11.75
2022-08-05T20:53:05.937Z,11.80
2022-08-05T20:56:08.350Z,11.90
2022-08-05T20:58:44.442Z,13.23
2022-08-05T21:01:38.557Z,13.10
2022-08-05T21:04:21.755Z,11.80
2022-08-05T21:07:11.060Z,11.43
2022-08-05T21:10:01.019Z,12.35
2022-08-05T21:12:57.673Z,13.30
2022-08-05T21:15:38.801Z,12.23
2022-08-05T21:18:26.584Z,11.12
2022-08-05T21:21:14.097Z,11.00
2022-08-05T21:24:01.633Z,11.90
2022-08-05T21:26:58.455Z,11.03
2022-08-05T21:29:40.801Z,11.90
2022-08-05T21:32:29.715Z,10.03
2022-08-05T21:35:30.095Z,12.15
2022-08-05T21:38:06.505Z,10.50
2022-08-05T21:40:55.059Z,10.18
2022-08-05T21:43:42.818Z,10.35
2022-08-05T21:46:34.607Z,10.75
2022-08-05T21:49:56.893Z,10.28
2022-08-05T21:52:21.573Z,10.72
2022-08-05T21:55:06.284Z,9.53
2022-08-05T21:57:50.802Z,10.20
2022-08-05T22:00:40.106Z,10.60
2022-08-05T22:03:52.018Z,11.80
2022-08-05T22:06:22.866Z,11.78
2022-08-05T22:09:14.667Z,11.25
2022-08-05T22:11:55.826Z,11.73
2022-08-05T22:14:44.308Z,13.88
2022-08-05T22:17:32.113Z,12.80
2022-08-05T22:20:21.106Z,12.37
2022-08-05T22:24:02.270Z,11.22
2022-08-05T22:26:35.802Z,11.55
2022-08-05T22:29:26.905Z,10.63
2022-08-05T22:32:22.931Z,10.35
2022-08-05T22:35:03.266Z,10.78
2022-08-05T22:37:59.103Z,12.40
2022-08-05T22:40:41.049Z,12.70
2022-08-05T22:43:37.124Z,11.85
2022-08-05T22:46:21.046Z,12.63
2022-08-05T22:50:17.165Z,11.57
2022-08-05T22:52:07.180Z,12.35
2022-08-05T22:54:51.194Z,12.88
2022-08-05T22:57:38.353Z,11.68
2022-08-05T23:00:26.777Z,11.25
2022-08-05T23:03:14.613Z,11.03
2022-08-05T23:06:02.049Z,10.08
2022-08-05T23:08:50.429Z,10.72
2022-08-05T23:11:38.592Z,9.53
2022-08-05T23:14:31.765Z,9.70
2022-08-05T23:17:34.886Z,9.28
2022-08-05T23:20:17.617Z,9.55
2022-08-05T23:23:08.079Z,9.75
2022-08-05T23:25:55.241Z,10.30
2022-08-05T23:28:43.135Z,9.58
2022-08-05T23:31:30.595Z,9.98
2022-08-05T23:34:24.852Z,10.45
2022-08-05T23:37:08.097Z,9.93
2022-08-05T23:39:57.179Z,9.53
2022-08-05T23:42:47.266Z,9.73
2022-08-05T23:45:33.905Z,9.25
2022-08-05T23:48:23.033Z,9.75
2022-08-05T23:51:12.187Z,9.28
2022-08-05T23:54:01.455Z,8.28
2022-08-05T23:56:49.225Z,8.73
